Terminal Aerodrome Forecast
Issued by NWS

Home | Current Version | Previous Version | Text Only | Print | Product List | Glossary On
Versions: 1 2 3 4 5 6 7 8 9 10 11 12 13 14 15
000
FTAK31 PAJN 262322
TAFAYA
TAF
PAYA 262322Z 2700/2724 10007KT 6SM -RA BKN007 BKN015 OVC040
     FM270400 10006KT 4SM -RA BR SCT006 OVC015
     FM271800 10010KT 4SM -RA BR SCT006 OVC015 WS020/13030KT
      AMD LTD TO CLD VIS AND WIND 2701/2709=

USA.gov is the U.S. government's official web portal to all federal, state and local government web resources and services.